sensor_id;sensor_type;location;lat;lon;timestamp;P1;durP1;ratioP1;P2;durP2;ratioP2
26977;SDS011;56314;48.088;11.642;2022-07-29T00:00:40;1.70;;;1.60;;
26977;SDS011;56314;48.088;11.642;2022-07-29T00:03:09;1.13;;;0.90;;
26977;SDS011;56314;48.088;11.642;2022-07-29T00:05:35;1.30;;;1.20;;
26977;SDS011;56314;48.088;11.642;2022-07-29T00:08:00;2.33;;;1.40;;
26977;SDS011;56314;48.088;11.642;2022-07-29T00:10:25;1.20;;;1.10;;
26977;SDS011;56314;48.088;11.642;2022-07-29T00:12:51;1.30;;;1.20;;
26977;SDS011;56314;48.088;11.642;2022-07-29T00:15:16;1.70;;;1.10;;
26977;SDS011;56314;48.088;11.642;2022-07-29T00:17:41;2.75;;;1.50;;
26977;SDS011;56314;48.088;11.642;2022-07-29T00:20:07;1.35;;;1.10;;
26977;SDS011;56314;48.088;11.642;2022-07-29T00:22:33;1.50;;;1.40;;
26977;SDS011;56314;48.088;11.642;2022-07-29T00:25:02;1.70;;;1.25;;
26977;SDS011;56314;48.088;11.642;2022-07-29T00:27:28;1.80;;;1.30;;
26977;SDS011;56314;48.088;11.642;2022-07-29T00:29:53;1.58;;;1.35;;
26977;SDS011;56314;48.088;11.642;2022-07-29T00:32:18;1.75;;;1.40;;
26977;SDS011;56314;48.088;11.642;2022-07-29T00:34:43;1.42;;;1.23;;
26977;SDS011;56314;48.088;11.642;2022-07-29T00:37:27;1.48;;;1.38;;
26977;SDS011;56314;48.088;11.642;2022-07-29T00:39:53;2.53;;;1.65;;
26977;SDS011;56314;48.088;11.642;2022-07-29T00:42:19;1.70;;;1.58;;
26977;SDS011;56314;48.088;11.642;2022-07-29T00:44:44;1.55;;;1.30;;
26977;SDS011;56314;48.088;11.642;2022-07-29T00:47:10;2.95;;;1.63;;
26977;SDS011;56314;48.088;11.642;2022-07-29T00:49:36;1.63;;;1.15;;
26977;SDS011;56314;48.088;11.642;2022-07-29T00:52:04;2.00;;;1.60;;
26977;SDS011;56314;48.088;11.642;2022-07-29T00:54:30;1.67;;;1.58;;
26977;SDS011;56314;48.088;11.642;2022-07-29T00:57:00;2.35;;;1.60;;
26977;SDS011;56314;48.088;11.642;2022-07-29T00:59:26;2.35;;;1.88;;
26977;SDS011;56314;48.088;11.642;2022-07-29T01:01:52;2.80;;;1.55;;
26977;SDS011;56314;48.088;11.642;2022-07-29T01:04:19;1.55;;;1.45;;
26977;SDS011;56314;48.088;11.642;2022-07-29T01:06:45;1.30;;;1.20;;
26977;SDS011;56314;48.088;11.642;2022-07-29T01:09:12;2.15;;;1.38;;
26977;SDS011;56314;48.088;11.642;2022-07-29T01:11:38;2.42;;;1.65;;
26977;SDS011;56314;48.088;11.642;2022-07-29T01:14:05;3.92;;;1.85;;
26977;SDS011;56314;48.088;11.642;2022-07-29T01:16:33;2.35;;;1.40;;
26977;SDS011;56314;48.088;11.642;2022-07-29T01:19:25;1.80;;;1.23;;
26977;SDS011;56314;48.088;11.642;2022-07-29T01:21:57;2.05;;;1.40;;
26977;SDS011;56314;48.088;11.642;2022-07-29T01:27:09;1.48;;;1.38;;
26977;SDS011;56314;48.088;11.642;2022-07-29T01:29:41;1.58;;;1.48;;
26977;SDS011;56314;48.088;11.642;2022-07-29T01:32:15;1.50;;;1.40;;
26977;SDS011;56314;48.088;11.642;2022-07-29T01:34:53;2.72;;;1.30;;
26977;SDS011;56314;48.088;11.642;2022-07-29T01:40:16;2.10;;;1.50;;
26977;SDS011;56314;48.088;11.642;2022-07-29T01:42:47;1.50;;;1.20;;
26977;SDS011;56314;48.088;11.642;2022-07-29T01:54:08;1.30;;;1.20;;
26977;SDS011;56314;48.088;11.642;2022-07-29T01:56:39;1.15;;;1.05;;
26977;SDS011;56314;48.088;11.642;2022-07-29T01:59:07;1.88;;;1.15;;
26977;SDS011;56314;48.088;11.642;2022-07-29T02:01:34;1.40;;;1.30;;
26977;SDS011;56314;48.088;11.642;2022-07-29T02:04:03;1.55;;;1.23;;
26977;SDS011;56314;48.088;11.642;2022-07-29T02:06:32;1.52;;;1.42;;
26977;SDS011;56314;48.088;11.642;2022-07-29T02:08:59;1.30;;;1.20;;
26977;SDS011;56314;48.088;11.642;2022-07-29T02:11:27;2.30;;;1.58;;
26977;SDS011;56314;48.088;11.642;2022-07-29T02:13:54;1.67;;;1.35;;
26977;SDS011;56314;48.088;11.642;2022-07-29T02:16:22;2.88;;;1.52;;
26977;SDS011;56314;48.088;11.642;2022-07-29T02:18:52;1.67;;;1.30;;
26977;SDS011;56314;48.088;11.642;2022-07-29T02:21:24;1.63;;;1.52;;
26977;SDS011;56314;48.088;11.642;2022-07-29T02:23:53;1.50;;;1.40;;
26977;SDS011;56314;48.088;11.642;2022-07-29T02:26:21;2.05;;;1.40;;
26977;SDS011;56314;48.088;11.642;2022-07-29T02:28:49;1.60;;;1.45;;
26977;SDS011;56314;48.088;11.642;2022-07-29T02:31:16;1.65;;;1.35;;
26977;SDS011;56314;48.088;11.642;2022-07-29T02:33:45;1.58;;;1.48;;
26977;SDS011;56314;48.088;11.642;2022-07-29T02:36:12;1.60;;;1.50;;
26977;SDS011;56314;48.088;11.642;2022-07-29T02:38:38;1.92;;;1.30;;
26977;SDS011;56314;48.088;11.642;2022-07-29T02:41:18;1.88;;;1.60;;
26977;SDS011;56314;48.088;11.642;2022-07-29T02:43:48;1.63;;;1.30;;
26977;SDS011;56314;48.088;11.642;2022-07-29T02:46:19;1.83;;;1.40;;
26977;SDS011;56314;48.088;11.642;2022-07-29T02:48:51;2.17;;;1.95;;
26977;SDS011;56314;48.088;11.642;2022-07-29T02:51:25;2.15;;;1.48;;
26977;SDS011;56314;48.088;11.642;2022-07-29T02:53:57;1.40;;;1.10;;
26977;SDS011;56314;48.088;11.642;2022-07-29T02:56:27;4.60;;;1.85;;
26977;SDS011;56314;48.088;11.642;2022-07-29T02:59:00;3.25;;;1.40;;
26977;SDS011;56314;48.088;11.642;2022-07-29T03:01:30;1.95;;;1.20;;
26977;SDS011;56314;48.088;11.642;2022-07-29T03:03:57;1.50;;;1.40;;
26977;SDS011;56314;48.088;11.642;2022-07-29T03:06:28;1.50;;;1.40;;
26977;SDS011;56314;48.088;11.642;2022-07-29T03:08:55;1.40;;;1.30;;
26977;SDS011;56314;48.088;11.642;2022-07-29T03:11:21;1.60;;;1.42;;
26977;SDS011;56314;48.088;11.642;2022-07-29T03:13:47;1.48;;;1.17;;
26977;SDS011;56314;48.088;11.642;2022-07-29T03:16:13;2.38;;;1.50;;
26977;SDS011;56314;48.088;11.642;2022-07-29T03:18:40;1.60;;;1.50;;
26977;SDS011;56314;48.088;11.642;2022-07-29T03:21:06;1.58;;;1.42;;
26977;SDS011;56314;48.088;11.642;2022-07-29T03:23:33;2.22;;;1.30;;
26977;SDS011;56314;48.088;11.642;2022-07-29T03:25:58;2.63;;;1.30;;
26977;SDS011;56314;48.088;11.642;2022-07-29T03:28:24;1.50;;;1.40;;
26977;SDS011;56314;48.088;11.642;2022-07-29T03:30:52;1.42;;;1.33;;
26977;SDS011;56314;48.088;11.642;2022-07-29T03:33:17;1.50;;;1.40;;
26977;SDS011;56314;48.088;11.642;2022-07-29T03:35:42;3.30;;;1.58;;
26977;SDS011;56314;48.088;11.642;2022-07-29T03:38:08;2.00;;;1.55;;
26977;SDS011;56314;48.088;11.642;2022-07-29T03:40:35;1.50;;;1.40;;
26977;SDS011;56314;48.088;11.642;2022-07-29T03:43:05;1.98;;;1.40;;
26977;SDS011;56314;48.088;11.642;2022-07-29T03:45:32;1.58;;;1.48;;
26977;SDS011;56314;48.088;11.642;2022-07-29T03:48:01;4.93;;;1.50;;
26977;SDS011;56314;48.088;11.642;2022-07-29T03:50:30;1.92;;;1.75;;
26977;SDS011;56314;48.088;11.642;2022-07-29T03:52:58;1.65;;;1.55;;
26977;SDS011;56314;48.088;11.642;2022-07-29T03:55:24;2.70;;;1.55;;
26977;SDS011;56314;48.088;11.642;2022-07-29T03:57:51;2.17;;;1.65;;
26977;SDS011;56314;48.088;11.642;2022-07-29T04:00:17;2.25;;;2.03;;
26977;SDS011;56314;48.088;11.642;2022-07-29T04:02:44;3.03;;;1.92;;
26977;SDS011;56314;48.088;11.642;2022-07-29T04:05:13;2.10;;;1.60;;
26977;SDS011;56314;48.088;11.642;2022-07-29T04:07:40;2.78;;;1.60;;
26977;SDS011;56314;48.088;11.642;2022-07-29T04:10:05;1.92;;;1.70;;
26977;SDS011;56314;48.088;11.642;2022-07-29T04:12:32;2.00;;;1.80;;
26977;SDS011;56314;48.088;11.642;2022-07-29T04:14:57;2.30;;;2.10;;
26977;SDS011;56314;48.088;11.642;2022-07-29T04:17:22;2.22;;;1.58;;
26977;SDS011;56314;48.088;11.642;2022-07-29T04:19:48;2.10;;;1.90;;
26977;SDS011;56314;48.088;11.642;2022-07-29T04:22:13;2.00;;;1.80;;
26977;SDS011;56314;48.088;11.642;2022-07-29T04:24:39;3.47;;;1.80;;
26977;SDS011;56314;48.088;11.642;2022-07-29T04:27:07;2.15;;;1.92;;
26977;SDS011;56314;48.088;11.642;2022-07-29T04:29:33;2.10;;;1.90;;
26977;SDS011;56314;48.088;11.642;2022-07-29T04:31:58;3.75;;;1.98;;
26977;SDS011;56314;48.088;11.642;2022-07-29T04:34:23;2.40;;;1.90;;
26977;SDS011;56314;48.088;11.642;2022-07-29T04:36:49;4.63;;;2.10;;
26977;SDS011;56314;48.088;11.642;2022-07-29T04:39:14;2.15;;;1.92;;
26977;SDS011;56314;48.088;11.642;2022-07-29T04:41:39;2.42;;;2.00;;
26977;SDS011;56314;48.088;11.642;2022-07-29T04:44:05;3.17;;;2.00;;
26977;SDS011;56314;48.088;11.642;2022-07-29T04:46:30;2.95;;;2.20;;
26977;SDS011;56314;48.088;11.642;2022-07-29T04:48:56;1.70;;;1.60;;
26977;SDS011;56314;48.088;11.642;2022-07-29T04:51:22;3.72;;;1.88;;
26977;SDS011;56314;48.088;11.642;2022-07-29T04:53:47;1.70;;;1.60;;
26977;SDS011;56314;48.088;11.642;2022-07-29T04:56:13;3.33;;;2.00;;
26977;SDS011;56314;48.088;11.642;2022-07-29T04:58:38;1.88;;;1.77;;
26977;SDS011;56314;48.088;11.642;2022-07-29T05:01:03;3.25;;;1.92;;
26977;SDS011;56314;48.088;11.642;2022-07-29T05:03:29;1.90;;;1.70;;
26977;SDS011;56314;48.088;11.642;2022-07-29T05:05:54;5.22;;;2.20;;
26977;SDS011;56314;48.088;11.642;2022-07-29T05:08:20;5.28;;;2.00;;
26977;SDS011;56314;48.088;11.642;2022-07-29T05:10:45;2.30;;;2.10;;
26977;SDS011;56314;48.088;11.642;2022-07-29T05:13:11;2.13;;;1.80;;
26977;SDS011;56314;48.088;11.642;2022-07-29T05:15:36;2.47;;;1.67;;
26977;SDS011;56314;48.088;11.642;2022-07-29T05:18:02;3.13;;;1.98;;
26977;SDS011;56314;48.088;11.642;2022-07-29T05:20:28;4.03;;;1.95;;
26977;SDS011;56314;48.088;11.642;2022-07-29T05:22:56;3.05;;;2.78;;
26977;SDS011;56314;48.088;11.642;2022-07-29T05:25:22;2.30;;;1.85;;
26977;SDS011;56314;48.088;11.642;2022-07-29T05:27:48;2.00;;;1.80;;
26977;SDS011;56314;48.088;11.642;2022-07-29T05:30:14;3.55;;;2.30;;
26977;SDS011;56314;48.088;11.642;2022-07-29T05:32:39;2.72;;;2.45;;
26977;SDS011;56314;48.088;11.642;2022-07-29T05:35:05;2.33;;;2.05;;
26977;SDS011;56314;48.088;11.642;2022-07-29T05:37:31;3.20;;;2.80;;
26977;SDS011;56314;48.088;11.642;2022-07-29T05:39:56;6.35;;;4.68;;
26977;SDS011;56314;48.088;11.642;2022-07-29T05:42:21;3.53;;;3.00;;
26977;SDS011;56314;48.088;11.642;2022-07-29T05:44:47;2.70;;;2.00;;
26977;SDS011;56314;48.088;11.642;2022-07-29T05:47:12;3.50;;;2.30;;
26977;SDS011;56314;48.088;11.642;2022-07-29T05:49:38;4.50;;;2.03;;
26977;SDS011;56314;48.088;11.642;2022-07-29T05:52:04;2.10;;;1.90;;
26977;SDS011;56314;48.088;11.642;2022-07-29T05:54:29;2.08;;;1.77;;
26977;SDS011;56314;48.088;11.642;2022-07-29T05:56:55;2.47;;;2.20;;
26977;SDS011;56314;48.088;11.642;2022-07-29T05:59:21;3.63;;;1.75;;
26977;SDS011;56314;48.088;11.642;2022-07-29T06:01:46;1.80;;;1.70;;
26977;SDS011;56314;48.088;11.642;2022-07-29T06:04:11;2.08;;;1.88;;
26977;SDS011;56314;48.088;11.642;2022-07-29T06:06:37;2.85;;;1.90;;
26977;SDS011;56314;48.088;11.642;2022-07-29T06:09:02;2.13;;;1.75;;
26977;SDS011;56314;48.088;11.642;2022-07-29T06:11:28;2.20;;;2.00;;
26977;SDS011;56314;48.088;11.642;2022-07-29T06:13:54;1.70;;;1.60;;
26977;SDS011;56314;48.088;11.642;2022-07-29T06:16:19;3.03;;;2.00;;
26977;SDS011;56314;48.088;11.642;2022-07-29T06:18:44;2.67;;;1.63;;
26977;SDS011;56314;48.088;11.642;2022-07-29T06:21:10;2.28;;;1.90;;
26977;SDS011;56314;48.088;11.642;2022-07-29T06:23:38;2.47;;;2.10;;
26977;SDS011;56314;48.088;11.642;2022-07-29T06:26:05;3.85;;;2.25;;
26977;SDS011;56314;48.088;11.642;2022-07-29T06:28:31;2.38;;;1.92;;
26977;SDS011;56314;48.088;11.642;2022-07-29T06:30:57;2.35;;;2.13;;
26977;SDS011;56314;48.088;11.642;2022-07-29T06:33:22;1.85;;;1.60;;
26977;SDS011;56314;48.088;11.642;2022-07-29T06:35:47;3.40;;;1.88;;
26977;SDS011;56314;48.088;11.642;2022-07-29T06:38:14;2.15;;;1.88;;
26977;SDS011;56314;48.088;11.642;2022-07-29T06:40:43;2.55;;;1.63;;
26977;SDS011;56314;48.088;11.642;2022-07-29T06:43:28;2.22;;;1.77;;
26977;SDS011;56314;48.088;11.642;2022-07-29T06:46:13;2.47;;;1.55;;
26977;SDS011;56314;48.088;11.642;2022-07-29T06:48:40;2.13;;;1.83;;
26977;SDS011;56314;48.088;11.642;2022-07-29T06:51:11;1.65;;;1.20;;
26977;SDS011;56314;48.088;11.642;2022-07-29T06:53:36;2.13;;;1.85;;
26977;SDS011;56314;48.088;11.642;2022-07-29T06:56:03;2.85;;;1.80;;
26977;SDS011;56314;48.088;11.642;2022-07-29T06:58:30;2.70;;;2.00;;
26977;SDS011;56314;48.088;11.642;2022-07-29T07:00:56;1.80;;;1.70;;
26977;SDS011;56314;48.088;11.642;2022-07-29T07:03:26;1.80;;;1.70;;
26977;SDS011;56314;48.088;11.642;2022-07-29T07:05:52;1.75;;;1.65;;
26977;SDS011;56314;48.088;11.642;2022-07-29T07:08:18;1.58;;;1.48;;
26977;SDS011;56314;48.088;11.642;2022-07-29T07:10:44;2.63;;;1.80;;
26977;SDS011;56314;48.088;11.642;2022-07-29T07:13:10;2.47;;;1.98;;
26977;SDS011;56314;48.088;11.642;2022-07-29T07:15:36;2.58;;;1.63;;
26977;SDS011;56314;48.088;11.642;2022-07-29T07:18:03;2.35;;;2.13;;
26977;SDS011;56314;48.088;11.642;2022-07-29T07:20:28;2.25;;;2.05;;
26977;SDS011;56314;48.088;11.642;2022-07-29T07:22:54;1.95;;;1.70;;
26977;SDS011;56314;48.088;11.642;2022-07-29T07:25:19;3.65;;;1.50;;
26977;SDS011;56314;48.088;11.642;2022-07-29T07:27:45;1.90;;;1.75;;
26977;SDS011;56314;48.088;11.642;2022-07-29T07:30:10;2.03;;;1.85;;
26977;SDS011;56314;48.088;11.642;2022-07-29T07:32:36;2.25;;;1.60;;
26977;SDS011;56314;48.088;11.642;2022-07-29T07:35:03;1.63;;;1.52;;
26977;SDS011;56314;48.088;11.642;2022-07-29T07:37:29;2.38;;;1.88;;
26977;SDS011;56314;48.088;11.642;2022-07-29T07:39:54;1.50;;;1.40;;
26977;SDS011;56314;48.088;11.642;2022-07-29T07:42:20;2.38;;;1.42;;
26977;SDS011;56314;48.088;11.642;2022-07-29T07:44:46;3.00;;;1.60;;
26977;SDS011;56314;48.088;11.642;2022-07-29T07:47:13;3.75;;;1.50;;
26977;SDS011;56314;48.088;11.642;2022-07-29T07:49:39;1.70;;;1.52;;
26977;SDS011;56314;48.088;11.642;2022-07-29T07:52:04;3.08;;;1.90;;
26977;SDS011;56314;48.088;11.642;2022-07-29T07:54:30;1.63;;;1.52;;
26977;SDS011;56314;48.088;11.642;2022-07-29T07:56:56;1.70;;;1.60;;
26977;SDS011;56314;48.088;11.642;2022-07-29T07:59:22;1.88;;;1.33;;
26977;SDS011;56314;48.088;11.642;2022-07-29T08:01:47;1.50;;;1.40;;
26977;SDS011;56314;48.088;11.642;2022-07-29T08:04:14;1.45;;;1.35;;
26977;SDS011;56314;48.088;11.642;2022-07-29T08:06:39;3.22;;;1.70;;
26977;SDS011;56314;48.088;11.642;2022-07-29T08:09:05;3.13;;;1.30;;
26977;SDS011;56314;48.088;11.642;2022-07-29T08:11:30;1.80;;;1.40;;
26977;SDS011;56314;48.088;11.642;2022-07-29T08:13:56;1.70;;;1.60;;
26977;SDS011;56314;48.088;11.642;2022-07-29T08:16:22;3.15;;;1.92;;
26977;SDS011;56314;48.088;11.642;2022-07-29T08:18:50;1.70;;;1.60;;
26977;SDS011;56314;48.088;11.642;2022-07-29T08:21:15;1.80;;;1.67;;
26977;SDS011;56314;48.088;11.642;2022-07-29T08:23:42;2.53;;;2.33;;
26977;SDS011;56314;48.088;11.642;2022-07-29T08:28:42;1.73;;;1.63;;
26977;SDS011;56314;48.088;11.642;2022-07-29T08:31:14;3.13;;;2.90;;
26977;SDS011;56314;48.088;11.642;2022-07-29T08:33:40;1.60;;;1.50;;
26977;SDS011;56314;48.088;11.642;2022-07-29T08:36:06;3.30;;;1.70;;
26977;SDS011;56314;48.088;11.642;2022-07-29T08:38:31;2.50;;;1.63;;
26977;SDS011;56314;48.088;11.642;2022-07-29T08:40:58;1.85;;;1.60;;
26977;SDS011;56314;48.088;11.642;2022-07-29T08:43:25;1.60;;;1.50;;
26977;SDS011;56314;48.088;11.642;2022-07-29T08:45:50;2.75;;;1.70;;
26977;SDS011;56314;48.088;11.642;2022-07-29T08:48:17;1.83;;;1.48;;
26977;SDS011;56314;48.088;11.642;2022-07-29T08:50:45;1.95;;;1.77;;
26977;SDS011;56314;48.088;11.642;2022-07-29T08:53:12;2.78;;;1.90;;
26977;SDS011;56314;48.088;11.642;2022-07-29T08:55:39;3.83;;;1.80;;
26977;SDS011;56314;48.088;11.642;2022-07-29T08:58:07;2.35;;;2.13;;
26977;SDS011;56314;48.088;11.642;2022-07-29T09:00:35;1.98;;;1.88;;
26977;SDS011;56314;48.088;11.642;2022-07-29T09:03:02;2.60;;;1.70;;
26977;SDS011;56314;48.088;11.642;2022-07-29T09:05:29;1.92;;;1.70;;
26977;SDS011;56314;48.088;11.642;2022-07-29T09:07:56;3.17;;;2.08;;
26977;SDS011;56314;48.088;11.642;2022-07-29T09:10:22;2.10;;;1.88;;
26977;SDS011;56314;48.088;11.642;2022-07-29T09:12:48;2.42;;;2.15;;
26977;SDS011;56314;48.088;11.642;2022-07-29T09:15:13;1.63;;;1.52;;
26977;SDS011;56314;48.088;11.642;2022-07-29T09:17:40;2.30;;;2.08;;
26977;SDS011;56314;48.088;11.642;2022-07-29T09:20:19;2.50;;;1.92;;
26977;SDS011;56314;48.088;11.642;2022-07-29T09:22:47;2.90;;;2.08;;
26977;SDS011;56314;48.088;11.642;2022-07-29T09:25:14;2.20;;;1.92;;
26977;SDS011;56314;48.088;11.642;2022-07-29T09:28:09;2.45;;;2.00;;
26977;SDS011;56314;48.088;11.642;2022-07-29T09:30:35;3.47;;;1.80;;
26977;SDS011;56314;48.088;11.642;2022-07-29T09:33:01;2.78;;;2.13;;
26977;SDS011;56314;48.088;11.642;2022-07-29T09:35:28;2.15;;;1.90;;
26977;SDS011;56314;48.088;11.642;2022-07-29T09:37:55;1.92;;;1.80;;
26977;SDS011;56314;48.088;11.642;2022-07-29T09:40:30;2.15;;;2.05;;
26977;SDS011;56314;48.088;11.642;2022-07-29T09:42:55;4.40;;;2.10;;
26977;SDS011;56314;48.088;11.642;2022-07-29T09:45:34;3.40;;;1.98;;
26977;SDS011;56314;48.088;11.642;2022-07-29T09:48:00;2.25;;;1.77;;
26977;SDS011;56314;48.088;11.642;2022-07-29T09:50:39;3.35;;;2.05;;
26977;SDS011;56314;48.088;11.642;2022-07-29T09:53:06;3.15;;;1.95;;
26977;SDS011;56314;48.088;11.642;2022-07-29T09:55:31;3.75;;;2.05;;
26977;SDS011;56314;48.088;11.642;2022-07-29T09:58:16;3.85;;;2.03;;
26977;SDS011;56314;48.088;11.642;2022-07-29T10:00:43;3.55;;;1.95;;
26977;SDS011;56314;48.088;11.642;2022-07-29T10:03:09;2.75;;;1.85;;
26977;SDS011;56314;48.088;11.642;2022-07-29T10:05:34;2.88;;;1.88;;
26977;SDS011;56314;48.088;11.642;2022-07-29T10:08:00;2.35;;;2.05;;
26977;SDS011;56314;48.088;11.642;2022-07-29T10:10:27;2.35;;;2.03;;
26977;SDS011;56314;48.088;11.642;2022-07-29T10:12:59;3.22;;;2.42;;
26977;SDS011;56314;48.088;11.642;2022-07-29T10:15:27;5.65;;;2.63;;
26977;SDS011;56314;48.088;11.642;2022-07-29T10:17:54;5.45;;;2.90;;
26977;SDS011;56314;48.088;11.642;2022-07-29T10:20:21;2.40;;;2.30;;
26977;SDS011;56314;48.088;11.642;2022-07-29T10:22:47;4.22;;;2.28;;
26977;SDS011;56314;48.088;11.642;2022-07-29T10:25:14;3.20;;;2.38;;
26977;SDS011;56314;48.088;11.642;2022-07-29T10:27:41;4.75;;;2.90;;
26977;SDS011;56314;48.088;11.642;2022-07-29T10:30:07;3.42;;;2.40;;
26977;SDS011;56314;48.088;11.642;2022-07-29T10:35:22;3.80;;;2.30;;
26977;SDS011;56314;48.088;11.642;2022-07-29T10:46:40;3.85;;;2.78;;
26977;SDS011;56314;48.088;11.642;2022-07-29T11:00:29;2.90;;;2.63;;
26977;SDS011;56314;48.088;11.642;2022-07-29T11:05:05;2.93;;;2.67;;
26977;SDS011;56314;48.088;11.642;2022-07-29T11:07:33;2.78;;;2.45;;
26977;SDS011;56314;48.088;11.642;2022-07-29T11:15:06;4.27;;;2.67;;
26977;SDS011;56314;48.088;11.642;2022-07-29T11:23:23;5.05;;;2.38;;
26977;SDS011;56314;48.088;11.642;2022-07-29T11:29:04;2.75;;;2.55;;
26977;SDS011;56314;48.088;11.642;2022-07-29T11:34:30;3.55;;;2.20;;
26977;SDS011;56314;48.088;11.642;2022-07-29T11:39:32;2.55;;;2.13;;
26977;SDS011;56314;48.088;11.642;2022-07-29T11:47:23;5.25;;;2.75;;
26977;SDS011;56314;48.088;11.642;2022-07-29T11:49:53;3.95;;;1.90;;
26977;SDS011;56314;48.088;11.642;2022-07-29T11:52:21;4.15;;;2.10;;
26977;SDS011;56314;48.088;11.642;2022-07-29T11:54:47;2.85;;;2.17;;
26977;SDS011;56314;48.088;11.642;2022-07-29T11:57:17;2.83;;;2.22;;
26977;SDS011;56314;48.088;11.642;2022-07-29T11:59:44;4.50;;;1.98;;
26977;SDS011;56314;48.088;11.642;2022-07-29T12:02:11;2.92;;;2.13;;
26977;SDS011;56314;48.088;11.642;2022-07-29T12:04:52;3.40;;;2.22;;
26977;SDS011;56314;48.088;11.642;2022-07-29T12:07:25;3.00;;;2.00;;
26977;SDS011;56314;48.088;11.642;2022-07-29T12:09:53;3.53;;;2.80;;
26977;SDS011;56314;48.088;11.642;2022-07-29T12:12:19;2.75;;;2.50;;
26977;SDS011;56314;48.088;11.642;2022-07-29T12:14:45;2.70;;;2.20;;
26977;SDS011;56314;48.088;11.642;2022-07-29T12:20:13;3.38;;;2.20;;
26977;SDS011;56314;48.088;11.642;2022-07-29T12:22:46;4.13;;;2.13;;
26977;SDS011;56314;48.088;11.642;2022-07-29T12:25:13;2.58;;;2.10;;
26977;SDS011;56314;48.088;11.642;2022-07-29T12:27:41;5.85;;;2.42;;
26977;SDS011;56314;48.088;11.642;2022-07-29T12:30:14;3.80;;;3.22;;
26977;SDS011;56314;48.088;11.642;2022-07-29T12:32:43;4.97;;;2.20;;
26977;SDS011;56314;48.088;11.642;2022-07-29T12:35:11;3.47;;;2.22;;
26977;SDS011;56314;48.088;11.642;2022-07-29T12:37:42;2.20;;;2.00;;
26977;SDS011;56314;48.088;11.642;2022-07-29T12:40:10;2.20;;;2.00;;
26977;SDS011;56314;48.088;11.642;2022-07-29T12:42:38;2.13;;;1.90;;
26977;SDS011;56314;48.088;11.642;2022-07-29T12:45:04;2.22;;;1.80;;
26977;SDS011;56314;48.088;11.642;2022-07-29T12:47:30;3.80;;;2.05;;
26977;SDS011;56314;48.088;11.642;2022-07-29T12:50:14;3.08;;;2.50;;
26977;SDS011;56314;48.088;11.642;2022-07-29T12:52:43;2.58;;;2.10;;
26977;SDS011;56314;48.088;11.642;2022-07-29T12:55:09;2.20;;;2.00;;
26977;SDS011;56314;48.088;11.642;2022-07-29T12:57:45;2.65;;;1.83;;
26977;SDS011;56314;48.088;11.642;2022-07-29T13:00:21;6.20;;;2.78;;
26977;SDS011;56314;48.088;11.642;2022-07-29T13:02:54;2.63;;;2.33;;
26977;SDS011;56314;48.088;11.642;2022-07-29T13:05:20;3.40;;;2.47;;
26977;SDS011;56314;48.088;11.642;2022-07-29T13:07:46;3.63;;;2.30;;
26977;SDS011;56314;48.088;11.642;2022-07-29T13:10:19;4.65;;;2.38;;
26977;SDS011;56314;48.088;11.642;2022-07-29T13:15:27;4.10;;;2.25;;
26977;SDS011;56314;48.088;11.642;2022-07-29T13:17:53;5.13;;;2.55;;
26977;SDS011;56314;48.088;11.642;2022-07-29T13:20:18;3.20;;;2.10;;
26977;SDS011;56314;48.088;11.642;2022-07-29T13:22:47;2.13;;;1.98;;
26977;SDS011;56314;48.088;11.642;2022-07-29T13:25:12;2.40;;;1.92;;
26977;SDS011;56314;48.088;11.642;2022-07-29T13:27:38;3.08;;;1.88;;
26977;SDS011;56314;48.088;11.642;2022-07-29T13:30:08;3.15;;;2.20;;
26977;SDS011;56314;48.088;11.642;2022-07-29T13:32:35;3.95;;;2.25;;
26977;SDS011;56314;48.088;11.642;2022-07-29T13:35:02;2.65;;;2.17;;
26977;SDS011;56314;48.088;11.642;2022-07-29T13:37:30;3.25;;;2.10;;
26977;SDS011;56314;48.088;11.642;2022-07-29T13:39:57;3.45;;;2.28;;
26977;SDS011;56314;48.088;11.642;2022-07-29T13:42:24;3.53;;;2.47;;
26977;SDS011;56314;48.088;11.642;2022-07-29T13:44:50;5.57;;;2.30;;
26977;SDS011;56314;48.088;11.642;2022-07-29T13:47:17;3.35;;;2.97;;
26977;SDS011;56314;48.088;11.642;2022-07-29T13:49:43;2.78;;;2.17;;
26977;SDS011;56314;48.088;11.642;2022-07-29T13:52:09;5.55;;;2.30;;
26977;SDS011;56314;48.088;11.642;2022-07-29T13:54:34;4.18;;;2.35;;
26977;SDS011;56314;48.088;11.642;2022-07-29T13:57:02;3.25;;;2.67;;
26977;SDS011;56314;48.088;11.642;2022-07-29T13:59:29;3.08;;;2.28;;
26977;SDS011;56314;48.088;11.642;2022-07-29T14:01:54;3.38;;;2.30;;
26977;SDS011;56314;48.088;11.642;2022-07-29T14:04:20;5.45;;;2.50;;
26977;SDS011;56314;48.088;11.642;2022-07-29T14:06:46;3.45;;;2.63;;
26977;SDS011;56314;48.088;11.642;2022-07-29T14:09:12;2.63;;;2.42;;
26977;SDS011;56314;48.088;11.642;2022-07-29T14:11:37;3.25;;;2.63;;
26977;SDS011;56314;48.088;11.642;2022-07-29T14:14:03;3.40;;;2.40;;
26977;SDS011;56314;48.088;11.642;2022-07-29T14:16:28;3.40;;;2.80;;
26977;SDS011;56314;48.088;11.642;2022-07-29T14:18:54;3.67;;;2.50;;
26977;SDS011;56314;48.088;11.642;2022-07-29T14:21:19;5.05;;;2.47;;
26977;SDS011;56314;48.088;11.642;2022-07-29T14:23:45;4.32;;;2.78;;
26977;SDS011;56314;48.088;11.642;2022-07-29T14:26:10;3.55;;;2.88;;
26977;SDS011;56314;48.088;11.642;2022-07-29T14:28:35;6.95;;;2.80;;
26977;SDS011;56314;48.088;11.642;2022-07-29T14:31:01;4.18;;;2.67;;
26977;SDS011;56314;48.088;11.642;2022-07-29T14:33:27;4.78;;;2.58;;
26977;SDS011;56314;48.088;11.642;2022-07-29T14:35:53;5.00;;;2.67;;
26977;SDS011;56314;48.088;11.642;2022-07-29T14:38:18;2.70;;;2.40;;
26977;SDS011;56314;48.088;11.642;2022-07-29T14:40:43;5.00;;;2.63;;
26977;SDS011;56314;48.088;11.642;2022-07-29T14:43:09;3.35;;;2.85;;
26977;SDS011;56314;48.088;11.642;2022-07-29T14:45:34;3.28;;;3.03;;
26977;SDS011;56314;48.088;11.642;2022-07-29T14:48:00;4.15;;;2.72;;
26977;SDS011;56314;48.088;11.642;2022-07-29T14:50:25;3.05;;;2.50;;
26977;SDS011;56314;48.088;11.642;2022-07-29T14:52:51;3.05;;;2.70;;
26977;SDS011;56314;48.088;11.642;2022-07-29T14:55:17;3.45;;;2.50;;
26977;SDS011;56314;48.088;11.642;2022-07-29T14:57:42;6.82;;;2.55;;
26977;SDS011;56314;48.088;11.642;2022-07-29T15:00:08;4.07;;;2.63;;
26977;SDS011;56314;48.088;11.642;2022-07-29T15:02:35;4.47;;;2.47;;
26977;SDS011;56314;48.088;11.642;2022-07-29T15:05:00;4.25;;;2.42;;
26977;SDS011;56314;48.088;11.642;2022-07-29T15:07:26;3.90;;;2.45;;
26977;SDS011;56314;48.088;11.642;2022-07-29T15:09:51;3.67;;;2.55;;
26977;SDS011;56314;48.088;11.642;2022-07-29T15:12:17;2.72;;;2.40;;
26977;SDS011;56314;48.088;11.642;2022-07-29T15:14:43;4.80;;;2.50;;
26977;SDS011;56314;48.088;11.642;2022-07-29T15:17:09;4.18;;;2.20;;
26977;SDS011;56314;48.088;11.642;2022-07-29T15:19:34;3.65;;;2.20;;
26977;SDS011;56314;48.088;11.642;2022-07-29T15:22:00;2.75;;;2.20;;
26977;SDS011;56314;48.088;11.642;2022-07-29T15:24:26;3.35;;;2.30;;
26977;SDS011;56314;48.088;11.642;2022-07-29T15:26:51;2.67;;;2.38;;
26977;SDS011;56314;48.088;11.642;2022-07-29T15:29:17;6.68;;;2.22;;
26977;SDS011;56314;48.088;11.642;2022-07-29T15:31:42;2.40;;;2.20;;
26977;SDS011;56314;48.088;11.642;2022-07-29T15:34:08;17.63;;;2.38;;
26977;SDS011;56314;48.088;11.642;2022-07-29T15:36:33;2.65;;;2.20;;
26977;SDS011;56314;48.088;11.642;2022-07-29T15:38:59;3.78;;;2.20;;
26977;SDS011;56314;48.088;11.642;2022-07-29T15:41:24;6.20;;;2.88;;
26977;SDS011;56314;48.088;11.642;2022-07-29T15:43:50;2.10;;;1.95;;
26977;SDS011;56314;48.088;11.642;2022-07-29T15:46:17;3.10;;;2.60;;